Time;durP1;ratioP1;P1;durP2;ratioP2;P2;SDS_P1;SDS_P2;PMS_P1;PMS_P2;Temp;Humidity;BMP_temperature;BMP_pressure;BME280_temperature;BME280_humidity;BME280_pressure;Samples;Min_cycle;Max_cycle;Signal;HPM_P1;HPM_P2
2022/10/09 00:01:02;;;;;;;;;;;;;;;21.74;65.68;100326.94;7313103;19;129124;-38
2022/10/09 00:03:27;;;;;;;;;;;;;;;21.76;66.19;100325.06;7313231;19;129710;-40
2022/10/09 00:05:53;;;;;;;;;;;;;;;21.75;65.59;100327.78;7313828;19;129570;-37
2022/10/09 00:08:18;;;;;;;;;;;;;;;21.79;65.88;100335.28;7315443;19;128877;-40
2022/10/09 00:10:43;;;;;;;;;;;;;;;21.76;65.84;100325.06;7315481;19;129190;-39
2022/10/09 00:13:09;;;;;;;;;;;;;;;21.74;66.09;100340.00;7313324;19;129366;-40
2022/10/09 00:15:38;;;;;;;;;;;;;;;21.74;65.51;100337.41;7312965;19;129593;-39
2022/10/09 00:18:03;;;;;;;;;;;;;;;21.71;66.17;100335.03;7315622;19;129042;-38
2022/10/09 00:20:29;;;;;;;;;;;;;;;21.75;65.60;100335.63;7315014;19;129047;-40
2022/10/09 00:22:54;;;;;;;;;;;;;;;21.76;65.35;100338.16;7315763;19;129374;-39
2022/10/09 00:25:19;;;;;;;;;;;;;;;21.76;66.00;100327.69;7312258;19;131354;-40
2022/10/09 00:27:44;;;;;;;;;;;;;;;21.76;65.44;100339.88;7312508;19;129679;-40
2022/10/09 00:30:10;;;;;;;;;;;;;;;21.65;65.67;100317.19;7314038;19;128872;-39
2022/10/09 00:32:35;;;;;;;;;;;;;;;21.73;65.89;100332.28;7312796;19;129240;-40
2022/10/09 00:35:00;;;;;;;;;;;;;;;21.74;65.32;100337.41;7313166;19;129285;-41
2022/10/09 00:37:26;;;;;;;;;;;;;;;21.66;65.49;100324.09;7314761;19;129330;-40
2022/10/09 00:39:52;;;;;;;;;;;;;;;21.75;66.17;100339.03;7314248;19;129262;-39
2022/10/09 00:42:17;;;;;;;;;;;;;;;21.73;65.68;100338.34;7313796;19;130098;-40
2022/10/09 00:45:02;;;;;;;;;;;;;;;21.72;65.61;100334.06;7314823;19;130316;-40
2022/10/09 00:47:30;;;;;;;;;;;;;;;21.73;66.02;100346.19;7313797;19;129634;-39
2022/10/09 00:49:58;;;;;;;;;;;;;;;21.72;66.07;100341.91;7314550;19;129017;-40
2022/10/09 00:52:24;;;;;;;;;;;;;;;21.73;65.95;100337.53;7313465;19;130111;-39
2022/10/09 00:54:51;;;;;;;;;;;;;;;21.75;66.15;100333.81;7312112;19;129679;-40
2022/10/09 00:57:16;;;;;;;;;;;;;;;21.75;65.39;100344.28;7314402;19;128917;-39
2022/10/09 00:59:41;;;;;;;;;;;;;;;21.73;65.82;100340.94;7313329;19;129002;-40
2022/10/09 01:02:06;;;;;;;;;;;;;;;21.73;66.08;100340.13;7311662;19;129768;-39
2022/10/09 01:04:32;;;;;;;;;;;;;;;21.75;65.51;100344.28;7309490;19;130757;-40
2022/10/09 01:07:06;;;;;;;;;;;;;;;21.74;65.37;100342.63;7313994;19;129157;-40
2022/10/09 01:09:31;;;;;;;;;;;;;;;21.73;65.78;100335.72;7315364;19;130159;-41
2022/10/09 01:12:05;;;;;;;;;;;;;;;21.74;65.92;100342.63;7312343;19;130025;-38
2022/10/09 01:14:30;;;;;;;;;;;;;;;21.74;66.01;100332.16;7308396;19;130539;-40
2022/10/09 01:17:01;;;;;;;;;;;;;;;21.75;65.97;100343.47;7311582;19;129922;-37
2022/10/09 01:19:33;;;;;;;;;;;;;;;21.74;65.84;100340.00;7314104;19;129310;-38
2022/10/09 01:22:36;;;;;;;;;;;;;;;21.74;65.66;100342.63;7304588;19;131440;-41
2022/10/09 01:25:10;;;;;;;;;;;;;;;21.72;65.98;100344.53;7307040;19;130081;-39
2022/10/09 01:27:36;;;;;;;;;;;;;;;21.72;65.59;100344.53;7306017;19;129301;-38
2022/10/09 01:30:06;;;;;;;;;;;;;;;21.64;65.80;100330.38;7307843;19;129102;-39
2022/10/09 01:32:33;;;;;;;;;;;;;;;21.76;65.32;100348.63;7307351;19;130107;-40
2022/10/09 01:34:59;;;;;;;;;;;;;;;21.76;66.12;100345.13;7310059;19;129719;-40
2022/10/09 01:37:26;;;;;;;;;;;;;;;21.74;65.87;100353.09;7313708;19;129521;-40
2022/10/09 01:39:52;;;;;;;;;;;;;;;21.72;65.97;100349.75;7313873;19;129599;-37
2022/10/09 01:42:18;;;;;;;;;;;;;;;21.70;65.47;100346.44;7318739;19;129213;-41
2022/10/09 01:44:44;;;;;;;;;;;;;;;21.76;65.66;100351.22;7319494;19;129412;-39
2022/10/09 01:47:13;;;;;;;;;;;;;;;21.74;65.53;100347.88;7318948;19;128923;-37
2022/10/09 01:49:51;;;;;;;;;;;;;;;21.73;66.29;100351.41;7319141;19;129470;-40
2022/10/09 01:52:28;;;;;;;;;;;;;;;21.73;65.55;100359.28;7315886;19;130925;-40
2022/10/09 01:55:05;;;;;;;;;;;;;;;21.76;66.08;100355.59;7318990;19;129178;-38
2022/10/09 01:57:34;;;;;;;;;;;;;;;21.72;65.99;100355.00;7313007;19;129304;-40
2022/10/09 02:00:01;;;;;;;;;;;;;;;21.68;65.72;100358.00;7317615;19;129192;-39
2022/10/09 02:02:27;;;;;;;;;;;;;;;21.73;66.17;100366.31;7316869;19;130161;-40
2022/10/09 02:04:52;;;;;;;;;;;;;;;21.71;65.95;100363.81;7316458;19;129085;-40
2022/10/09 02:07:18;;;;;;;;;;;;;;;21.73;65.88;100366.31;7317594;19;129796;-40
2022/10/09 02:09:44;;;;;;;;;;;;;;;21.77;65.64;100365.97;7317923;19;129402;-40
2022/10/09 02:12:11;;;;;;;;;;;;;;;21.61;65.76;100357.66;7315706;19;129126;-38
2022/10/09 02:14:38;;;;;;;;;;;;;;;21.73;65.75;100382.00;7313612;19;132295;-39
2022/10/09 02:17:07;;;;;;;;;;;;;;;21.76;65.22;100373.91;7318063;19;131372;-40
2022/10/09 02:19:38;;;;;;;;;;;;;;;21.75;65.89;100370.44;7317689;19;129737;-37
2022/10/09 02:22:06;;;;;;;;;;;;;;;21.73;65.95;100377.59;7317319;19;129261;-40
2022/10/09 02:24:32;;;;;;;;;;;;;;;21.74;65.78;100381.88;7315081;19;129261;-41
2022/10/09 02:26:58;;;;;;;;;;;;;;;21.78;65.75;100379.91;7315718;19;129152;-38
2022/10/09 02:29:23;;;;;;;;;;;;;;;21.75;65.48;100378.31;7315839;19;130269;-39
2022/10/09 02:31:48;;;;;;;;;;;;;;;21.67;65.94;100362.38;7316656;19;129733;-38
2022/10/09 02:34:18;;;;;;;;;;;;;;;21.76;65.74;100380.03;7317297;19;129367;-38
2022/10/09 02:36:43;;;;;;;;;;;;;;;21.72;65.65;100375.94;7316804;19;129079;-40
2022/10/09 02:39:09;;;;;;;;;;;;;;;21.70;66.08;100388.31;7317435;19;129393;-41
2022/10/09 02:41:34;;;;;;;;;;;;;;;21.74;65.33;100391.53;7315302;19;129844;-40
2022/10/09 02:44:00;;;;;;;;;;;;;;;21.75;66.15;100390.59;7309573;19;130390;-39
2022/10/09 02:46:25;;;;;;;;;;;;;;;21.73;65.54;100398.53;7314512;19;129169;-39
2022/10/09 02:48:50;;;;;;;;;;;;;;;21.62;66.07;100377.63;7314745;19;129394;-38
2022/10/09 02:51:16;;;;;;;;;;;;;;;21.75;65.37;100396.63;7311582;19;131364;-36
2022/10/09 02:53:41;;;;;;;;;;;;;;;21.74;65.59;100394.13;7315270;19;129631;-39
2022/10/09 02:56:07;;;;;;;;;;;;;;;21.77;65.41;100400.00;7307968;19;130060;-40
2022/10/09 02:58:33;;;;;;;;;;;;;;;21.75;65.51;100399.25;7316689;19;129007;-39
2022/10/09 03:00:58;;;;;;;;;;;;;;;21.74;65.57;100394.97;7317996;19;131744;-39
2022/10/09 03:03:24;;;;;;;;;;;;;;;21.72;65.53;100406.50;7316410;19;129764;-39
2022/10/09 03:06:03;;;;;;;;;;;;;;;21.76;66.11;100398.34;7316198;19;129464;-40
2022/10/09 03:08:29;;;;;;;;;;;;;;;21.76;65.35;100406.19;7317026;19;129365;-39
2022/10/09 03:10:54;;;;;;;;;;;;;;;21.75;65.75;100406.28;7310122;19;130160;-38
2022/10/09 03:13:19;;;;;;;;;;;;;;;21.67;65.49;100404.25;7314316;19;129627;-40
2022/10/09 03:15:44;;;;;;;;;;;;;;;21.73;65.43;100408.19;7315598;19;129168;-39
2022/10/09 03:18:10;;;;;;;;;;;;;;;21.76;66.23;100413.16;7311846;19;131665;-40
2022/10/09 03:20:36;;;;;;;;;;;;;;;21.73;65.51;100414.22;7314839;19;129297;-39
2022/10/09 03:23:01;;;;;;;;;;;;;;;21.71;66.23;100421.41;7311067;19;129409;-39
2022/10/09 03:25:26;;;;;;;;;;;;;;;21.70;65.82;100414.47;7313803;19;129293;-38
2022/10/09 03:27:52;;;;;;;;;;;;;;;21.70;65.94;100418.91;7315804;19;129141;-41
2022/10/09 03:30:17;;;;;;;;;;;;;;;21.73;65.88;100424.69;7310427;19;130883;-40
2022/10/09 03:32:42;;;;;;;;;;;;;;;21.71;65.45;100421.41;7314301;19;130169;-41
2022/10/09 03:35:08;;;;;;;;;;;;;;;21.72;65.81;100423.06;7312756;19;131293;-40
2022/10/09 03:37:33;;;;;;;;;;;;;;;21.68;66.04;100426.84;7313298;19;130338;-40
2022/10/09 03:39:58;;;;;;;;;;;;;;;21.75;65.43;100433.28;7315632;19;129631;-41
2022/10/09 03:42:24;;;;;;;;;;;;;;;21.73;65.85;100424.69;7309244;19;129547;-40
2022/10/09 03:44:49;;;;;;;;;;;;;;;21.72;65.50;100427.44;7315057;19;129088;-39
2022/10/09 03:47:15;;;;;;;;;;;;;;;21.71;65.42;100431.03;7316310;19;129412;-40
2022/10/09 03:49:40;;;;;;;;;;;;;;;21.73;65.65;100429.13;7316009;19;130144;-39
2022/10/09 03:52:05;;;;;;;;;;;;;;;21.70;65.28;100430.19;7314684;19;129265;-39
2022/10/09 03:54:31;;;;;;;;;;;;;;;21.70;66.12;100435.41;7315681;19;129952;-39
2022/10/09 03:56:56;;;;;;;;;;;;;;;21.73;65.47;100426.50;7316194;19;129375;-40
2022/10/09 03:59:21;;;;;;;;;;;;;;;21.74;65.58;100433.41;7314610;19;129467;-36
2022/10/09 04:01:46;;;;;;;;;;;;;;;21.74;65.27;100439.47;7309627;19;131761;-39
2022/10/09 04:04:12;;;;;;;;;;;;;;;21.71;65.77;100431.03;7313464;19;129322;-40
2022/10/09 04:06:37;;;;;;;;;;;;;;;21.71;65.79;100431.88;7314362;19;128875;-40
2022/10/09 04:09:02;;;;;;;;;;;;;;;21.70;65.88;100437.22;7311325;19;129802;-40
2022/10/09 04:11:27;;;;;;;;;;;;;;;21.70;65.55;100438.03;7314710;19;129299;-38
2022/10/09 04:13:53;;;;;;;;;;;;;;;21.68;66.01;100439.94;7312312;19;129429;-41
2022/10/09 04:16:18;;;;;;;;;;;;;;;21.73;65.47;100435.16;7309284;19;129016;-40
2022/10/09 04:18:43;;;;;;;;;;;;;;;21.70;65.86;100440.66;7313032;19;129822;-40
2022/10/09 04:21:09;;;;;;;;;;;;;;;21.69;65.56;100438.16;7312086;19;132211;-39
2022/10/09 04:23:34;;;;;;;;;;;;;;;21.72;65.39;100438.75;7313780;19;129116;-39
2022/10/09 04:26:00;;;;;;;;;;;;;;;21.65;65.63;100424.47;7309922;19;130404;-41
2022/10/09 04:28:25;;;;;;;;;;;;;;;21.70;65.96;100445.06;7312411;19;129223;-41
2022/10/09 04:30:51;;;;;;;;;;;;;;;21.69;66.00;100439.00;7313055;19;129652;-38
2022/10/09 04:33:16;;;;;;;;;;;;;;;21.72;66.08;100443.97;7308982;19;130227;-38
2022/10/09 04:35:42;;;;;;;;;;;;;;;21.63;65.99;100425.56;7311638;19;129916;-40
2022/10/09 04:38:07;;;;;;;;;;;;;;;21.74;66.21;100444.72;7313206;19;129870;-40
2022/10/09 04:40:32;;;;;;;;;;;;;;;21.63;66.13;100434.25;7310163;19;129322;-39
2022/10/09 04:42:58;;;;;;;;;;;;;;;21.71;65.38;100451.97;7312044;19;129341;-41
2022/10/09 04:45:23;;;;;;;;;;;;;;;21.71;65.72;100442.34;7310123;19;129207;-38
2022/10/09 04:47:48;;;;;;;;;;;;;;;21.71;65.96;100450.19;7308923;19;129543;-41
2022/10/09 04:50:14;;;;;;;;;;;;;;;21.69;65.77;100444.22;7313587;19;129588;-39
2022/10/09 04:52:39;;;;;;;;;;;;;;;21.70;65.72;100439.84;7309288;19;130888;-40
2022/10/09 04:55:05;;;;;;;;;;;;;;;21.65;65.82;100432.31;7309441;19;130237;-40
2022/10/09 04:57:30;;;;;;;;;;;;;;;21.75;65.48;100454.22;7310863;19;130425;-39
2022/10/09 04:59:55;;;;;;;;;;;;;;;21.69;65.47;100449.47;7309190;19;130506;-38
2022/10/09 05:02:20;;;;;;;;;;;;;;;21.69;65.82;100454.69;7308926;19;131590;-39
2022/10/09 05:04:46;;;;;;;;;;;;;;;21.70;65.90;100456.34;7310604;19;129469;-39
2022/10/09 05:07:11;;;;;;;;;;;;;;;21.71;65.97;100452.81;7309382;19;129047;-39
2022/10/09 05:09:36;;;;;;;;;;;;;;;21.71;65.90;100457.19;7308953;19;130861;-39
2022/10/09 05:12:01;;;;;;;;;;;;;;;21.74;65.29;100452.56;7308738;19;129863;-39
2022/10/09 05:14:26;;;;;;;;;;;;;;;21.70;65.93;100455.53;7305108;19;129411;-40
2022/10/09 05:16:52;;;;;;;;;;;;;;;21.69;65.75;100459.09;7311362;19;129040;-39
2022/10/09 05:19:17;;;;;;;;;;;;;;;21.69;65.52;100465.16;7303921;19;129619;-41
2022/10/09 05:21:43;;;;;;;;;;;;;;;21.67;65.87;100472.31;7309758;19;129732;-39
2022/10/09 05:24:08;;;;;;;;;;;;;;;21.64;65.52;100462.06;7308226;19;129389;-39
2022/10/09 05:26:33;;;;;;;;;;;;;;;21.73;65.72;100479.66;7312321;19;129630;-41
2022/10/09 05:28:58;;;;;;;;;;;;;;;21.70;65.83;100486.94;7311348;19;131246;-39
2022/10/09 05:31:25;;;;;;;;;;;;;;;21.70;65.50;100486.94;7312505;19;129020;-40
2022/10/09 05:33:50;;;;;;;;;;;;;;;21.73;65.75;100484.91;7303533;19;130433;-39
2022/10/09 05:36:16;;;;;;;;;;;;;;;21.63;65.39;100470.03;7309207;19;130694;-39
2022/10/09 05:38:41;;;;;;;;;;;;;;;21.69;65.48;100491.34;7311525;19;129413;-40
2022/10/09 05:41:09;;;;;;;;;;;;;;;21.70;65.51;100495.59;7307993;19;128996;-37
2022/10/09 05:43:35;;;;;;;;;;;;;;;21.72;65.92;100487.63;7307347;19;130510;-41
2022/10/09 05:46:28;;;;;;;;;;;;;;;21.74;65.64;100488.34;7307182;19;129259;-39
2022/10/09 05:48:58;;;;;;;;;;;;;;;21.65;65.74;100484.66;7308673;19;129625;-39
2022/10/09 05:51:24;;;;;;;;;;;;;;;21.69;65.75;100490.50;7308853;19;129066;-40
2022/10/09 05:53:49;;;;;;;;;;;;;;;21.59;66.00;100474.69;7309564;19;128934;-39
2022/10/09 05:56:15;;;;;;;;;;;;;;;21.70;65.68;100482.53;7307255;19;129581;-39
2022/10/09 05:58:40;;;;;;;;;;;;;;;21.68;65.94;100483.59;7309346;19;129604;-40
2022/10/09 06:01:07;;;;;;;;;;;;;;;21.70;66.00;100493.00;7308329;19;130983;-40
2022/10/09 06:03:33;;;;;;;;;;;;;;;21.71;65.91;100489.44;7308905;19;129573;-40
2022/10/09 06:06:00;;;;;;;;;;;;;;;21.71;65.28;100489.44;7306528;19;129772;-40
2022/10/09 06:08:25;;;;;;;;;;;;;;;21.72;65.46;100490.25;7308841;19;130631;-39
2022/10/09 06:10:50;;;;;;;;;;;;;;;21.70;66.16;100487.75;7311685;19;129247;-41
2022/10/09 06:13:16;;;;;;;;;;;;;;;21.72;65.72;100488.47;7306605;19;129318;-40
2022/10/09 06:15:50;;;;;;;;;;;;;;;21.70;65.41;100498.22;7308307;19;129588;-40
2022/10/09 06:18:15;;;;;;;;;;;;;;;21.70;65.96;100494.81;7305417;19;129977;-40
2022/10/09 06:20:51;;;;;;;;;;;;;;;21.70;65.42;100494.81;7305975;19;129840;-41
2022/10/09 06:23:16;;;;;;;;;;;;;;;21.69;65.75;100496.56;7307833;19;129103;-39
2022/10/09 06:25:49;;;;;;;;;;;;;;;21.63;65.52;100486.59;7307620;19;130386;-39
2022/10/09 06:28:14;;;;;;;;;;;;;;;21.71;65.09;100505.16;7316098;19;130431;-39
2022/10/09 06:30:39;;;;;;;;;;;;;;;21.68;65.56;100510.59;7316191;19;129745;-42
2022/10/09 06:33:05;;;;;;;;;;;;;;;21.76;65.95;100512.63;7312352;19;130307;-40
2022/10/09 06:35:33;;;;;;;;;;;;;;;21.65;65.80;100513.44;7313572;19;130129;-41
2022/10/09 06:37:58;;;;;;;;;;;;;;;21.68;65.68;100526.28;7314534;19;129992;-39
2022/10/09 06:40:23;;;;;;;;;;;;;;;21.63;65.47;100506.69;7313515;19;130363;-41
2022/10/09 06:42:48;;;;;;;;;;;;;;;21.71;65.69;100520.84;7313489;19;129978;-38
2022/10/09 06:45:14;;;;;;;;;;;;;;;21.69;65.60;100522.75;7313670;19;131207;-41
2022/10/09 06:47:39;;;;;;;;;;;;;;;21.72;65.39;100522.50;7314990;19;129227;-41
2022/10/09 06:50:05;;;;;;;;;;;;;;;21.70;66.11;100524.41;7312748;19;129292;-37
2022/10/09 06:52:30;;;;;;;;;;;;;;;21.69;65.38;100530.59;7313611;19;130770;-40
2022/10/09 06:54:55;;;;;;;;;;;;;;;21.69;66.12;100535.84;7310349;19;130166;-39
2022/10/09 06:57:20;;;;;;;;;;;;;;;21.69;65.70;100543.69;7308720;19;130307;-40
2022/10/09 06:59:48;;;;;;;;;;;;;;;21.69;65.99;100548.06;7313217;19;130083;-38
2022/10/09 07:02:14;;;;;;;;;;;;;;;21.69;65.70;100542.84;7310193;19;130770;-39
2022/10/09 07:04:39;;;;;;;;;;;;;;;21.69;65.88;100546.31;7314054;19;130302;-41
2022/10/09 07:07:04;;;;;;;;;;;;;;;21.66;66.28;100550.94;7315572;19;129815;-39
2022/10/09 07:09:30;;;;;;;;;;;;;;;21.64;65.50;100544.97;7314254;19;129107;-39
2022/10/09 07:11:55;;;;;;;;;;;;;;;21.72;65.39;100553.06;7315307;19;128996;-41
2022/10/09 07:14:20;;;;;;;;;;;;;;;21.64;65.36;100540.59;7306660;19;131704;-37
2022/10/09 07:16:47;;;;;;;;;;;;;;;21.73;66.03;100560.00;7314432;19;130242;-39
2022/10/09 07:19:13;;;;;;;;;;;;;;;21.66;65.66;100554.38;7315433;19;131743;-40
2022/10/09 07:21:40;;;;;;;;;;;;;;;21.66;66.29;100549.16;7315177;19;130141;-39
2022/10/09 07:24:05;;;;;;;;;;;;;;;21.65;66.15;100557.94;7309661;19;130266;-38
2022/10/09 07:26:32;;;;;;;;;;;;;;;21.53;65.68;100537.13;7313912;19;130763;-40
2022/10/09 07:28:57;;;;;;;;;;;;;;;21.68;66.09;100559.50;7311315;19;130143;-38
2022/10/09 07:31:23;;;;;;;;;;;;;;;21.66;65.85;100567.47;7313191;19;130302;-39
2022/10/09 07:33:52;;;;;;;;;;;;;;;21.68;65.83;100567.34;7311715;19;129474;-40
2022/10/09 07:36:18;;;;;;;;;;;;;;;21.71;66.04;100569.75;7310160;19;132050;-38
2022/10/09 07:38:47;;;;;;;;;;;;;;;21.71;66.13;100567.97;7311409;19;129617;-40
2022/10/09 07:41:13;;;;;;;;;;;;;;;21.69;66.34;100569.84;7311835;19;129272;-39
2022/10/09 07:43:39;;;;;;;;;;;;;;;21.68;65.71;100565.56;7310512;19;129498;-39
2022/10/09 07:46:06;;;;;;;;;;;;;;;21.69;66.18;100571.63;7307459;19;129516;-41
2022/10/09 07:48:32;;;;;;;;;;;;;;;21.68;65.71;100572.59;7310571;19;130281;-40
2022/10/09 07:51:05;;;;;;;;;;;;;;;21.58;65.86;100564.63;7315326;19;130253;-39
2022/10/09 07:53:30;;;;;;;;;;;;;;;21.66;65.94;100569.25;7307758;19;130415;-37
2022/10/09 07:55:56;;;;;;;;;;;;;;;21.65;66.14;100580.69;7311156;19;130645;-40
2022/10/09 07:58:21;;;;;;;;;;;;;;;21.58;66.03;100564.63;7312089;19;129516;-38
2022/10/09 08:00:46;;;;;;;;;;;;;;;21.69;65.31;100584.72;7313631;19;129376;-38
2022/10/09 08:03:12;;;;;;;;;;;;;;;21.70;65.84;100581.97;7313150;19;129326;-40
2022/10/09 08:05:37;;;;;;;;;;;;;;;21.72;65.71;100582.69;7306467;19;131005;-41
2022/10/09 08:08:02;;;;;;;;;;;;;;;21.63;65.99;100572.94;7312336;19;129668;-40
2022/10/09 08:10:28;;;;;;;;;;;;;;;21.72;65.67;100579.25;7314656;19;129258;-40
2022/10/09 08:12:53;;;;;;;;;;;;;;;21.64;66.08;100584.22;7311491;19;131168;-40
2022/10/09 08:15:19;;;;;;;;;;;;;;;21.68;65.37;100577.81;7309545;19;129273;-38
2022/10/09 08:17:44;;;;;;;;;;;;;;;21.66;65.78;100585.78;7313510;19;130396;-41
2022/10/09 08:20:09;;;;;;;;;;;;;;;21.68;65.79;100578.63;7313154;19;129138;-38
2022/10/09 08:22:34;;;;;;;;;;;;;;;21.68;65.80;100581.25;7309887;19;129422;-39
2022/10/09 08:25:00;;;;;;;;;;;;;;;21.68;65.50;100583.88;7311918;19;130839;-41
2022/10/09 08:27:25;;;;;;;;;;;;;;;21.69;65.56;100580.31;7315120;19;128975;-41
2022/10/09 08:29:50;;;;;;;;;;;;;;;21.68;66.01;100583.88;7315192;19;128846;-41
2022/10/09 08:32:16;;;;;;;;;;;;;;;21.65;65.36;100578.88;7303706;19;130431;-40
2022/10/09 08:34:41;;;;;;;;;;;;;;;21.65;65.54;100578.88;7313936;19;129372;-40
2022/10/09 08:37:06;;;;;;;;;;;;;;;21.67;65.53;100581.38;7313926;19;129784;-39
2022/10/09 08:39:32;;;;;;;;;;;;;;;21.65;65.56;100581.50;7305639;19;129897;-37
2022/10/09 08:42:00;;;;;;;;;;;;;;;21.65;65.53;100575.44;7308124;19;130133;-39
2022/10/09 08:44:39;;;;;;;;;;;;;;;21.65;65.78;100573.63;7314191;19;130229;-40
2022/10/09 08:47:23;;;;;;;;;;;;;;;21.64;65.37;100582.44;7314115;19;129656;-38
2022/10/09 08:50:01;;;;;;;;;;;;;;;21.63;65.93;100575.56;7311777;19;129311;-38
2022/10/09 08:52:36;;;;;;;;;;;;;;;21.64;65.37;100579.84;7313491;19;129576;-40
2022/10/09 08:55:14;;;;;;;;;;;;;;;21.63;65.49;100580.81;7296540;19;129233;-40
2022/10/09 08:57:40;;;;;;;;;;;;;;;21.68;66.18;100583.06;7307297;19;130952;-39
2022/10/09 09:00:12;;;;;;;;;;;;;;;21.67;65.95;100581.38;7310483;19;129130;-40
2022/10/09 09:02:57;;;;;;;;;;;;;;;21.66;65.53;100580.56;7311322;19;129560;-39
2022/10/09 09:05:32;;;;;;;;;;;;;;;21.68;65.94;100589.09;7309554;19;130172;-39
2022/10/09 09:08:10;;;;;;;;;;;;;;;21.67;65.32;100576.97;7311348;19;130946;-40
2022/10/09 09:10:39;;;;;;;;;;;;;;;21.62;65.83;100571.25;7309364;19;129248;-40
2022/10/09 09:13:13;;;;;;;;;;;;;;;21.68;65.25;100568.16;7307907;19;130356;-38
2022/10/09 09:15:45;;;;;;;;;;;;;;;21.64;66.49;100566.75;7311049;19;129161;-40
2022/10/09 09:18:10;;;;;;;;;;;;;;;21.54;65.39;100565.78;7309334;19;130455;-37
2022/10/09 09:20:47;;;;;;;;;;;;;;;21.64;65.32;100566.75;7310448;19;131841;-40
2022/10/09 09:23:14;;;;;;;;;;;;;;;21.66;65.81;100572.72;7311822;19;130085;-39
2022/10/09 09:25:40;;;;;;;;;;;;;;;21.59;65.54;100563.66;7310130;19;130442;-41
2022/10/09 09:28:21;;;;;;;;;;;;;;;21.66;65.41;100564.84;7308520;19;129321;-40
2022/10/09 09:30:49;;;;;;;;;;;;;;;21.63;66.15;100559.03;7312953;19;129715;-40
2022/10/09 09:33:29;;;;;;;;;;;;;;;21.56;66.00;100553.41;7305575;19;131109;-40
2022/10/09 09:36:17;;;;;;;;;;;;;;;21.67;65.46;100563.06;7308377;19;130423;-39
2022/10/09 09:38:43;;;;;;;;;;;;;;;21.64;65.41;100565.91;7310725;19;128999;-41
2022/10/09 09:41:08;;;;;;;;;;;;;;;21.64;65.79;100558.91;7310612;19;129788;-40
2022/10/09 09:43:34;;;;;;;;;;;;;;;21.63;65.57;100562.47;7310964;19;129089;-39
2022/10/09 09:45:59;;;;;;;;;;;;;;;21.64;66.12;100556.28;7307259;19;129153;-38
2022/10/09 09:48:32;;;;;;;;;;;;;;;21.68;65.37;100551.66;7311732;19;130947;-41
2022/10/09 09:50:57;;;;;;;;;;;;;;;21.64;66.10;100547.59;7310992;19;130674;-38
2022/10/09 09:53:28;;;;;;;;;;;;;;;21.65;65.57;100552.69;7311307;19;129570;-40
2022/10/09 09:55:54;;;;;;;;;;;;;;;21.62;65.37;100552.94;7308782;19;130168;-40
2022/10/09 09:58:20;;;;;;;;;;;;;;;21.62;65.57;100547.72;7309962;19;129556;-38
2022/10/09 10:00:53;;;;;;;;;;;;;;;21.63;65.70;100553.78;7315060;19;130227;-39
2022/10/09 10:03:20;;;;;;;;;;;;;;;21.59;65.25;100558.41;7318008;19;132703;-39
2022/10/09 10:05:45;;;;;;;;;;;;;;;21.60;65.75;100560.06;7315887;19;130239;-41
2022/10/09 10:08:13;;;;;;;;;;;;;;;21.62;65.52;100546.88;7318231;19;129170;-39
2022/10/09 10:10:43;;;;;;;;;;;;;;;21.57;65.56;100539.38;7317848;19;129536;-39
2022/10/09 10:13:13;;;;;;;;;;;;;;;21.63;65.81;100543.31;7316351;19;129566;-39
2022/10/09 10:15:46;;;;;;;;;;;;;;;21.62;65.78;100552.94;7312011;19;129685;-40
2022/10/09 10:18:13;;;;;;;;;;;;;;;21.65;65.76;100544.84;7316698;19;130589;-39
2022/10/09 10:20:46;;;;;;;;;;;;;;;21.67;65.18;100545.56;7317716;19;129252;-40
2022/10/09 10:23:30;;;;;;;;;;;;;;;21.65;65.47;100533.56;7314942;19;129599;-40
2022/10/09 10:25:57;;;;;;;;;;;;;;;21.65;65.60;100536.19;7316489;19;130970;-40
2022/10/09 10:28:31;;;;;;;;;;;;;;;21.65;65.73;100536.19;7313883;19;128857;-38
2022/10/09 10:30:59;;;;;;;;;;;;;;;21.57;65.25;100518.44;7313535;19;130993;-40
2022/10/09 10:33:28;;;;;;;;;;;;;;;21.66;65.58;100533.44;7313075;19;130207;-37
2022/10/09 10:35:55;;;;;;;;;;;;;;;21.64;65.32;100534.50;7314030;19;129301;-39
2022/10/09 10:38:20;;;;;;;;;;;;;;;21.52;65.65;100515.34;7316964;19;129192;-39
2022/10/09 10:40:51;;;;;;;;;;;;;;;21.62;65.46;100525.94;7316002;19;129480;-39
2022/10/09 10:43:20;;;;;;;;;;;;;;;21.56;65.97;100505.47;7317588;19;130004;-40
2022/10/09 10:45:57;;;;;;;;;;;;;;;21.63;65.32;100517.16;7312768;19;129882;-40
2022/10/09 10:48:25;;;;;;;;;;;;;;;21.62;65.63;100518.91;7316634;19;129709;-41
2022/10/09 10:51:11;;;;;;;;;;;;;;;21.61;65.40;100530.34;7315872;19;130811;-41
2022/10/09 10:54:01;;;;;;;;;;;;;;;21.60;65.71;100520.81;7314420;19;131527;-40
2022/10/09 10:56:34;;;;;;;;;;;;;;;21.63;65.95;100512.75;7316214;19;129676;-40
2022/10/09 10:58:59;;;;;;;;;;;;;;;21.64;65.83;100509.19;7317102;19;129477;-38
2022/10/09 11:01:36;;;;;;;;;;;;;;;21.63;65.61;100504.91;7317140;19;129145;-40
2022/10/09 11:04:30;;;;;;;;;;;;;;;21.62;65.52;100495.38;7308553;19;131299;-38
2022/10/09 11:07:15;;;;;;;;;;;;;;;21.64;65.72;100484.78;7297177;19;129373;-38
2022/10/09 11:09:46;;;;;;;;;;;;;;;21.61;64.87;100487.66;7307465;19;131576;-39
2022/10/09 11:12:27;;;;;;;;;;;;;;;21.59;65.72;100489.53;7305160;19;131440;-38
2022/10/09 11:15:07;;;;;;;;;;;;;;;21.50;65.48;100470.13;7304423;19;130324;-39
2022/10/09 11:17:35;;;;;;;;;;;;;;;21.66;65.08;100478.50;7307836;19;131037;-40
2022/10/09 11:20:07;;;;;;;;;;;;;;;21.60;65.82;100480.75;7309967;19;131088;-41
2022/10/09 11:22:35;;;;;;;;;;;;;;;21.65;65.65;100470.75;7313051;19;130397;-40
2022/10/09 11:25:03;;;;;;;;;;;;;;;21.65;64.76;100465.53;7302534;19;130252;-38
2022/10/09 11:27:38;;;;;;;;;;;;;;;21.65;64.59;100468.97;7301967;19;130611;-41
2022/10/09 11:30:11;;;;;;;;;;;;;;;21.65;65.07;100461.13;7313989;19;129455;-40
2022/10/09 11:32:36;;;;;;;;;;;;;;;21.69;64.87;100454.69;7304532;19;130363;-38
2022/10/09 11:35:11;;;;;;;;;;;;;;;21.59;64.17;100442.44;7307566;19;129343;-40
2022/10/09 11:37:38;;;;;;;;;;;;;;;21.64;64.91;100446.38;7313683;19;130411;-39
2022/10/09 11:40:18;;;;;;;;;;;;;;;21.60;65.16;100444.94;7313177;19;130733;-39
2022/10/09 11:42:51;;;;;;;;;;;;;;;21.61;64.75;100436.16;7313427;19;129394;-39
2022/10/09 11:45:34;;;;;;;;;;;;;;;21.64;64.77;100430.66;7312049;19;129653;-40
2022/10/09 11:48:22;;;;;;;;;;;;;;;21.69;64.84;100432.91;7315293;19;129234;-39
2022/10/09 11:50:52;;;;;;;;;;;;;;;21.66;65.08;100422.69;7313180;19;131351;-39
2022/10/09 11:53:20;;;;;;;;;;;;;;;21.66;64.80;100420.91;7313765;19;129694;-40
2022/10/09 11:55:47;;;;;;;;;;;;;;;21.65;64.82;100421.03;7310865;19;130419;-39
2022/10/09 11:58:14;;;;;;;;;;;;;;;21.49;65.55;100400.47;7315520;19;130394;-38
2022/10/09 12:00:40;;;;;;;;;;;;;;;21.54;64.71;100406.16;7313676;19;129699;-38
2022/10/09 12:03:06;;;;;;;;;;;;;;;21.53;65.24;100401.91;7310022;19;129357;-40
2022/10/09 12:05:41;;;;;;;;;;;;;;;21.56;65.46;100401.66;7311190;19;131220;-39
2022/10/09 12:08:12;;;;;;;;;;;;;;;21.54;65.43;100397.47;7313666;19;129384;-39
2022/10/09 12:10:40;;;;;;;;;;;;;;;21.50;65.19;100402.13;7315333;19;129210;-39
2022/10/09 12:13:06;;;;;;;;;;;;;;;21.52;65.63;100389.75;7313039;19;130165;-40
2022/10/09 12:15:37;;;;;;;;;;;;;;;21.53;65.38;100386.22;7313647;19;129412;-40
2022/10/09 12:18:13;;;;;;;;;;;;;;;21.52;65.19;100387.13;7311314;19;130000;-38
2022/10/09 12:20:39;;;;;;;;;;;;;;;21.50;65.82;100381.19;7289305;19;131049;-39
2022/10/09 12:23:08;;;;;;;;;;;;;;;21.51;65.80;100376.78;7290928;19;130795;-39
2022/10/09 12:25:41;;;;;;;;;;;;;;;21.49;65.20;100363.00;7289062;19;131266;-41
2022/10/09 12:28:15;;;;;;;;;;;;;;;21.56;64.85;100369.41;7295163;19;129772;-37
2022/10/09 12:30:45;;;;;;;;;;;;;;;21.56;65.32;100364.19;7291488;19;130380;-40
2022/10/09 12:33:13;;;;;;;;;;;;;;;21.53;65.06;100365.28;7294869;19;130790;-40